HTIR/IRI METAR and TAF weather

Enter ICAO airport designator
Station Type Date Time Source
HTIR METAR 2018/10/19 16:00 UTC NOAA

HTIR 191600Z 17009KT 9999 SCT020 F0W22CB 24/15 Q1019


Station Type Date Time Source
HTIR Decoded METAR 2018/10/19 16:00 UTC NOAA

Iringa, Tanzania (HTIR) 07-40S 035-45E 1428M
Oct 19, 2018 - 12:00 PM EDT / 2018.10.19 1600 UTC
Wind: from the S (170 degrees) at 10 MPH (9 KT):0
Visibility: greater than 7 mile(s):0
Sky conditions: partly cloudy
Weather: Cumulonimbus clouds observed
Temperature: 75 F (24 C)
Dew Point: 59 F (15 C)
Relative Humidity: 57%
Pressure (altimeter): 30.09 in. Hg (1019 hPa)
ob: HTIR 191600Z 17009KT 9999 SCT020 F0W22CB 24/15 Q1019
cycle: 16

Station Type Date Time Source
HTIR TAF UTC NOAA

Error!


Example: see airport list